Time;durP1;ratioP1;P1;durP2;ratioP2;P2;SDS_P1;SDS_P2;PMS_P1;PMS_P2;Temp;Humidity;BMP_temperature;BMP_pressure;BME280_temperature;BME280_humidity;BME280_pressure;Samples;Min_cycle;Max_cycle;Signal;HPM_P1;HPM_P2
2022/09/25 00:00:42;;;;;;;32.85;23.50;;;12.90;99.90;;;;;;5014576;28;20723;-71
2022/09/25 00:03:09;;;;;;;34.85;25.45;;;12.90;99.90;;;;;;5014108;28;20217;-71
2022/09/25 00:05:35;;;;;;;34.38;24.08;;;12.90;99.90;;;;;;5014464;28;20179;-71
2022/09/25 00:08:03;;;;;;;39.30;26.35;;;12.90;99.90;;;;;;5050721;28;20182;-71
2022/09/25 00:10:29;;;;;;;33.55;23.98;;;12.90;99.90;;;;;;5053966;28;20209;-71
2022/09/25 00:12:55;;;;;;;40.47;25.33;;;12.90;99.90;;;;;;5054160;28;20179;-71
2022/09/25 00:15:20;;;;;;;38.35;24.60;;;12.90;99.90;;;;;;5054005;28;20171;-71
2022/09/25 00:17:47;;;;;;;37.78;25.75;;;12.90;99.90;;;;;;5034136;28;20288;-71
2022/09/25 00:20:15;;;;;;;38.25;25.80;;;12.90;99.90;;;;;;5033699;28;20245;-71
2022/09/25 00:22:41;;;;;;;38.05;24.52;;;12.90;99.90;;;;;;5033645;28;20254;-71
2022/09/25 00:25:12;;;;;;;37.30;23.85;;;12.90;99.90;;;;;;5032614;28;20727;-71
2022/09/25 00:27:37;;;;;;;34.47;23.35;;;12.90;99.90;;;;;;5027845;28;20192;-71
2022/09/25 00:30:04;;;;;;;35.90;25.55;;;12.90;99.90;;;;;;5014464;28;20199;-71
2022/09/25 00:32:29;;;;;;;41.45;26.15;;;12.90;99.90;;;;;;5014516;28;20195;-71
2022/09/25 00:34:55;;;;;;;39.55;25.75;;;12.90;99.90;;;;;;5013246;28;20553;-71
2022/09/25 00:37:21;;;;;;;35.95;24.42;;;12.90;99.90;;;;;;5039464;28;20261;-71
2022/09/25 00:39:47;;;;;;;38.08;25.25;;;12.90;99.90;;;;;;5053509;28;20198;-71
2022/09/25 00:42:13;;;;;;;37.15;24.33;;;12.90;99.90;;;;;;5053697;28;20170;-71
2022/09/25 00:44:56;;;;;;;37.88;23.70;;;12.90;99.90;;;;;;5009869;28;1252584;-71
2022/09/25 00:47:35;;;;;;;39.85;25.52;;;12.90;99.90;;;;;;5038557;28;20179;-71
2022/09/25 00:50:03;;;;;;;36.10;23.80;;;12.90;99.90;;;;;;5034213;28;20203;-71
2022/09/25 00:52:30;;;;;;;35.83;23.95;;;12.90;99.90;;;;;;5034316;28;20547;-71
2022/09/25 00:55:04;;;;;;;33.50;23.08;;;12.90;99.90;;;;;;5034123;28;20187;-71
2022/09/25 00:57:36;;;;;;;33.72;22.98;;;12.80;99.90;;;;;;5030778;28;20551;-71
2022/09/25 01:00:08;;;;;;;36.95;24.48;;;12.80;99.90;;;;;;5014599;28;20207;-71
2022/09/25 01:02:41;;;;;;;34.30;23.55;;;12.80;99.90;;;;;;5012985;28;20175;-71
2022/09/25 01:05:10;;;;;;;38.75;24.70;;;12.80;99.90;;;;;;5014734;28;20164;-71
2022/09/25 01:07:39;;;;;;;33.50;22.55;;;12.80;99.90;;;;;;5042474;28;20743;-71
2022/09/25 01:10:07;;;;;;;30.85;21.58;;;12.80;99.90;;;;;;5052674;28;20296;-71
2022/09/25 01:12:37;;;;;;;33.92;22.52;;;12.70;99.90;;;;;;5052707;28;20178;-71
2022/09/25 01:15:06;;;;;;;34.35;20.92;;;12.70;99.90;;;;;;5053967;28;20170;-71
2022/09/25 01:17:36;;;;;;;42.03;21.33;;;12.70;99.90;;;;;;5035368;28;20186;-71
2022/09/25 01:20:31;;;;;;;27.83;18.95;;;12.70;99.90;;;;;;5032573;28;20624;-71
2022/09/25 01:23:09;;;;;;;27.05;18.27;;;12.70;99.90;;;;;;5032585;28;20171;-71
2022/09/25 01:26:02;;;;;;;31.23;16.67;;;12.70;99.90;;;;;;5033718;28;20167;-71
2022/09/25 01:28:34;;;;;;;25.83;16.42;;;12.70;99.90;;;;;;5022142;28;20176;-70
2022/09/25 01:31:17;;;;;;;28.40;15.00;;;12.70;99.90;;;;;;5028606;28;20183;-71
2022/09/25 01:33:52;;;;;;;26.63;14.82;;;12.70;99.90;;;;;;5012821;28;20238;-71
2022/09/25 01:36:34;;;;;;;21.90;14.73;;;12.60;99.90;;;;;;5022512;28;20276;-71
2022/09/25 01:39:11;;;;;;;21.40;13.15;;;12.60;99.90;;;;;;5053438;28;20190;-71
2022/09/25 01:42:13;;;;;;;21.40;13.25;;;12.60;99.90;;;;;;5053601;28;20232;-71
2022/09/25 01:44:52;;;;;;;19.35;14.20;;;12.60;99.90;;;;;;5050576;28;20569;-71
2022/09/25 01:47:26;;;;;;;23.55;12.30;;;12.60;99.90;;;;;;5038478;28;20670;-71
2022/09/25 01:49:57;;;;;;;23.63;13.88;;;12.60;99.90;;;;;;5033705;28;20272;-71
2022/09/25 01:52:31;;;;;;;20.60;12.27;;;12.60;99.90;;;;;;5032171;28;20174;-71
2022/09/25 01:55:11;;;;;;;23.70;12.80;;;12.60;99.90;;;;;;5033766;28;20195;-71
2022/09/25 01:58:00;;;;;;;20.50;11.45;;;12.60;99.90;;;;;;5029164;28;20215;-71
2022/09/25 02:00:26;;;;;;;22.00;11.52;;;12.60;99.90;;;;;;5013726;28;20219;-71
2022/09/25 02:03:05;;;;;;;19.75;11.40;;;12.60;99.90;;;;;;5012172;28;20552;-71
2022/09/25 02:05:48;;;;;;;25.38;12.02;;;12.60;99.90;;;;;;5013955;28;20160;-71
2022/09/25 02:08:21;;;;;;;17.52;11.77;;;12.60;99.90;;;;;;5012437;28;20168;-71
2022/09/25 02:10:54;;;;;;;19.67;9.82;;;12.60;99.90;;;;;;5013950;28;20200;-71
2022/09/25 02:13:23;;;;;;;18.10;10.32;;;12.60;99.90;;;;;;5013514;28;20161;-71
2022/09/25 02:15:53;;;;;;;17.55;9.80;;;12.50;99.90;;;;;;5016407;28;20520;-71
2022/09/25 02:21:28;;;;;;;14.88;8.88;;;12.50;99.90;;;;;;5033584;28;20198;-71
2022/09/25 02:24:20;;;;;;;18.17;9.02;;;12.50;99.90;;;;;;5032053;28;20566;-71
2022/09/25 02:26:47;;;;;;;17.15;9.27;;;12.50;99.90;;;;;;5033562;28;20166;-71
2022/09/25 02:29:14;;;;;;;20.08;10.25;;;12.50;99.90;;;;;;5015533;28;20230;-71
2022/09/25 02:32:04;;;;;;;19.88;10.05;;;12.50;99.90;;;;;;5013883;28;20202;-71
2022/09/25 02:34:31;;;;;;;20.77;9.50;;;12.50;99.90;;;;;;5013679;28;20196;-71
2022/09/25 02:36:58;;;;;;;18.95;10.02;;;12.50;99.90;;;;;;5036187;28;20182;-71
2022/09/25 02:39:27;;;;;;;20.83;9.32;;;12.50;99.90;;;;;;5056316;28;20194;-71
2022/09/25 02:41:59;;;;;;;15.13;9.10;;;12.50;99.90;;;;;;5055995;28;20186;-71
2022/09/25 02:44:54;;;;;;;16.20;8.07;;;12.50;99.90;;;;;;5056611;28;20163;-71
2022/09/25 02:47:46;;;;;;;16.48;8.00;;;12.50;99.90;;;;;;5041349;28;20183;-71
2022/09/25 02:50:43;;;;;;;12.00;7.13;;;12.50;99.90;;;;;;5036676;28;20636;-71
2022/09/25 02:53:22;;;;;;;16.73;8.15;;;12.50;99.90;;;;;;5036647;28;20250;-71
2022/09/25 02:56:15;;;;;;;10.90;6.85;;;12.40;99.90;;;;;;5036520;28;20190;-71
2022/09/25 02:58:52;;;;;;;14.73;7.25;;;12.40;99.90;;;;;;5036332;28;20174;-71
2022/09/25 03:01:21;;;;;;;14.23;7.15;;;12.40;99.90;;;;;;5035205;28;20199;-71
2022/09/25 03:03:49;;;;;;;13.90;6.80;;;12.30;99.90;;;;;;5036210;28;20185;-71
2022/09/25 03:06:16;;;;;;;13.03;6.60;;;12.30;99.90;;;;;;5040073;28;20622;-71
2022/09/25 03:08:48;;;;;;;14.63;6.30;;;12.30;99.90;;;;;;5055904;28;20171;-71
2022/09/25 03:11:18;;;;;;;15.53;5.90;;;12.30;99.90;;;;;;5055960;28;20238;-71
2022/09/25 03:13:45;;;;;;;15.20;6.00;;;12.30;99.90;;;;;;5056039;28;20526;-71
2022/09/25 03:16:17;;;;;;;11.68;5.72;;;12.30;99.90;;;;;;5049027;28;20218;-71
2022/09/25 03:18:43;;;;;;;14.30;5.68;;;12.30;99.90;;;;;;5035735;28;20202;-71
2022/09/25 03:21:09;;;;;;;14.25;6.35;;;12.30;99.90;;;;;;5035901;28;20211;-71
2022/09/25 03:23:35;;;;;;;12.13;5.95;;;12.30;99.90;;;;;;5035813;28;20209;-71
2022/09/25 03:26:00;;;;;;;8.40;5.50;;;12.30;99.90;;;;;;5034601;28;20189;-71
2022/09/25 03:28:26;;;;;;;15.25;5.85;;;12.30;99.90;;;;;;5024373;28;20187;-71
2022/09/25 03:31:10;;;;;;;11.98;5.93;;;12.30;99.90;;;;;;5014445;28;20295;-71
2022/09/25 03:33:38;;;;;;;12.70;5.30;;;12.30;99.90;;;;;;5015732;28;20168;-71
2022/09/25 03:36:09;;;;;;;12.50;5.45;;;12.30;99.90;;;;;;5019958;28;20188;-71
2022/09/25 03:38:36;;;;;;;12.68;5.40;;;12.20;99.90;;;;;;5055344;28;20159;-71
2022/09/25 03:41:02;;;;;;;14.02;5.50;;;12.20;99.90;;;;;;5054225;28;20214;-71
2022/09/25 03:43:32;;;;;;;10.43;4.93;;;12.20;99.90;;;;;;5055378;28;20170;-71
2022/09/25 03:45:58;;;;;;;13.05;5.32;;;12.20;99.90;;;;;;5050014;28;20203;-70
2022/09/25 03:48:24;;;;;;;9.50;4.50;;;12.20;99.90;;;;;;5035243;28;20174;-71
2022/09/25 03:50:49;;;;;;;10.07;5.00;;;12.20;99.90;;;;;;5035143;28;20710;-71
2022/09/25 03:53:17;;;;;;;11.68;4.82;;;12.20;99.90;;;;;;5034174;28;20190;-71
2022/09/25 03:55:47;;;;;;;11.60;4.97;;;12.20;99.90;;;;;;5033838;28;20228;-71
2022/09/25 03:58:16;;;;;;;8.93;4.53;;;12.20;99.90;;;;;;5025680;28;20241;-71
2022/09/25 04:00:44;;;;;;;10.25;4.20;;;12.20;99.90;;;;;;5013788;28;20303;-71
2022/09/25 04:03:11;;;;;;;7.63;4.25;;;12.10;99.90;;;;;;5015107;28;20230;-71
2022/09/25 04:05:37;;;;;;;13.60;4.40;;;12.10;99.90;;;;;;5015105;28;20201;-71
2022/09/25 04:08:03;;;;;;;15.07;4.60;;;12.20;99.90;;;;;;5051865;28;20171;-71
2022/09/25 04:10:29;;;;;;;11.77;4.53;;;12.20;99.90;;;;;;5054712;28;20277;-71
2022/09/25 04:12:56;;;;;;;9.15;4.63;;;12.10;99.90;;;;;;5054761;28;20263;-71
2022/09/25 04:15:22;;;;;;;15.95;4.65;;;12.10;99.90;;;;;;5054935;28;20209;-71
2022/09/25 04:17:48;;;;;;;8.90;4.35;;;12.10;99.90;;;;;;5035437;28;20265;-71
2022/09/25 04:20:14;;;;;;;8.40;4.10;;;12.10;99.90;;;;;;5034521;28;20202;-71
2022/09/25 04:22:40;;;;;;;6.40;3.90;;;12.10;99.90;;;;;;5034512;28;20669;-71
2022/09/25 04:25:06;;;;;;;9.60;4.17;;;12.10;99.90;;;;;;5035042;28;20179;-70
2022/09/25 04:27:32;;;;;;;8.25;4.35;;;12.10;99.90;;;;;;5030818;28;20180;-71
2022/09/25 04:30:00;;;;;;;9.40;4.40;;;12.00;99.90;;;;;;5015007;28;20230;-71
2022/09/25 04:35:10;;;;;;;10.23;3.88;;;12.00;99.90;;;;;;5014696;28;20199;-71
2022/09/25 04:37:35;;;;;;;10.20;4.07;;;12.00;99.90;;;;;;5043954;28;20628;-71
2022/09/25 04:40:01;;;;;;;7.57;4.20;;;11.90;99.90;;;;;;5053280;28;20214;-71
2022/09/25 04:42:27;;;;;;;11.70;4.30;;;11.90;99.90;;;;;;5054669;28;20175;-71
2022/09/25 04:44:54;;;;;;;7.03;4.35;;;11.90;99.90;;;;;;5054122;28;20708;-71
2022/09/25 04:47:21;;;;;;;13.30;4.07;;;11.90;99.90;;;;;;5039127;28;20191;-71
2022/09/25 04:49:47;;;;;;;8.87;3.90;;;11.80;99.90;;;;;;5034011;28;20206;-71
2022/09/25 04:52:14;;;;;;;13.37;4.07;;;11.80;99.90;;;;;;5034193;28;20610;-71
2022/09/25 04:54:41;;;;;;;12.03;4.03;;;11.80;99.90;;;;;;5033886;28;20563;-70
2022/09/25 04:57:10;;;;;;;8.27;4.07;;;11.80;99.90;;;;;;5033456;28;20178;-71
2022/09/25 04:59:36;;;;;;;10.07;3.88;;;11.80;99.90;;;;;;5012958;28;20623;-70
2022/09/25 05:02:02;;;;;;;10.93;3.70;;;11.80;99.90;;;;;;5014169;28;20201;-71
2022/09/25 05:04:27;;;;;;;12.17;3.63;;;11.70;99.90;;;;;;5012419;28;20180;-71
2022/09/25 05:06:53;;;;;;;5.18;3.35;;;11.70;99.90;;;;;;5030496;28;20260;-70
2022/09/25 05:09:19;;;;;;;5.78;3.58;;;11.70;99.90;;;;;;5053436;28;20200;-70
2022/09/25 05:11:47;;;;;;;9.18;3.65;;;11.70;99.90;;;;;;5052526;28;20252;-70
2022/09/25 05:14:13;;;;;;;9.53;4.23;;;11.70;99.90;;;;;;5052466;28;20186;-71
2022/09/25 05:16:39;;;;;;;9.33;4.20;;;11.60;99.90;;;;;;5044093;28;20189;-71
2022/09/25 05:19:05;;;;;;;7.37;4.40;;;11.50;99.90;;;;;;5033264;28;20217;-70
2022/09/25 05:21:31;;;;;;;12.02;3.83;;;11.50;99.90;;;;;;5033568;28;20572;-70
2022/09/25 05:23:57;;;;;;;9.13;3.83;;;11.40;99.90;;;;;;5033431;28;20186;-70
2022/09/25 05:26:23;;;;;;;9.60;4.13;;;11.40;99.90;;;;;;5033830;28;20182;-70
2022/09/25 05:28:49;;;;;;;11.32;4.20;;;11.40;99.90;;;;;;5017647;28;20188;-70
2022/09/25 05:31:16;;;;;;;7.50;4.00;;;11.40;99.90;;;;;;5012495;28;20190;-71
2022/09/25 05:33:42;;;;;;;7.83;4.13;;;11.30;99.90;;;;;;5013567;28;20227;-71
2022/09/25 05:36:09;;;;;;;15.27;4.00;;;11.30;99.90;;;;;;5019270;28;20184;-71
2022/09/25 05:38:37;;;;;;;13.40;3.77;;;11.30;99.90;;;;;;5053310;28;20643;-71
2022/09/25 05:41:05;;;;;;;8.63;3.63;;;11.30;99.90;;;;;;5053503;28;20281;-71
2022/09/25 05:43:32;;;;;;;10.63;4.50;;;11.30;99.90;;;;;;5052003;28;20240;-70
2022/09/25 05:45:59;;;;;;;9.70;4.00;;;11.30;99.90;;;;;;5049293;28;20539;-70
2022/09/25 05:48:25;;;;;;;7.53;3.80;;;11.30;99.90;;;;;;5033090;28;20175;-70
2022/09/25 05:50:56;;;;;;;10.60;4.20;;;11.30;99.90;;;;;;5031990;28;20257;-70
2022/09/25 05:53:23;;;;;;;11.63;4.20;;;11.30;99.90;;;;;;5033123;28;20223;-70
2022/09/25 05:55:57;;;;;;;9.20;4.33;;;11.30;99.90;;;;;;5033611;28;20520;-71
2022/09/25 05:58:24;;;;;;;7.80;3.93;;;11.30;99.90;;;;;;5022522;28;20263;-70
2022/09/25 06:00:50;;;;;;;8.90;4.50;;;11.30;99.90;;;;;;5013464;28;20235;-70
2022/09/25 06:03:18;;;;;;;10.30;3.97;;;11.30;99.90;;;;;;5013339;28;20168;-70
2022/09/25 06:05:45;;;;;;;7.67;3.77;;;11.30;99.90;;;;;;5013801;28;20207;-71
2022/09/25 06:08:11;;;;;;;5.47;3.97;;;11.30;99.90;;;;;;5050906;28;20213;-71
2022/09/25 06:10:38;;;;;;;9.90;4.88;;;11.30;99.90;;;;;;5053206;28;20190;-71
2022/09/25 06:13:04;;;;;;;12.52;4.28;;;11.30;99.90;;;;;;5051656;28;20206;-71
2022/09/25 06:15:36;;;;;;;12.23;4.07;;;11.30;99.90;;;;;;5053459;28;20627;-71
2022/09/25 06:18:04;;;;;;;10.70;4.50;;;11.30;99.90;;;;;;5036775;28;20695;-70
2022/09/25 06:20:29;;;;;;;10.50;3.97;;;11.20;99.90;;;;;;5035688;28;20218;-71
2022/09/25 06:22:57;;;;;;;11.43;4.03;;;11.20;99.90;;;;;;5037151;28;20253;-71
2022/09/25 06:25:25;;;;;;;12.80;4.67;;;11.20;99.90;;;;;;5037069;28;20628;-71
2022/09/25 06:27:53;;;;;;;8.43;4.67;;;11.10;99.90;;;;;;5030143;28;20190;-71
2022/09/25 06:30:20;;;;;;;7.03;4.23;;;11.10;99.90;;;;;;5015710;28;20215;-71
2022/09/25 06:32:47;;;;;;;9.93;4.37;;;11.10;99.90;;;;;;5015316;28;20194;-71
2022/09/25 06:35:13;;;;;;;7.17;4.20;;;11.00;99.90;;;;;;5017363;28;20172;-71
2022/09/25 06:37:39;;;;;;;12.23;4.83;;;11.00;99.90;;;;;;5047222;28;20182;-71
2022/09/25 06:40:05;;;;;;;11.97;4.30;;;11.00;99.90;;;;;;5056424;28;20245;-71
2022/09/25 06:42:34;;;;;;;9.37;4.07;;;11.00;99.90;;;;;;5056741;28;20711;-71
2022/09/25 06:45:00;;;;;;;5.17;4.07;;;11.00;99.90;;;;;;5056821;28;20217;-71
2022/09/25 06:47:26;;;;;;;11.47;4.50;;;11.10;99.90;;;;;;5041671;28;20179;-71
2022/09/25 06:49:51;;;;;;;9.70;4.40;;;11.10;99.90;;;;;;5035806;28;20229;-70
2022/09/25 06:52:17;;;;;;;8.57;4.50;;;11.10;99.90;;;;;;5036804;28;20183;-71
2022/09/25 06:54:43;;;;;;;9.80;4.33;;;11.10;99.90;;;;;;5035250;28;20183;-71
2022/09/25 06:57:09;;;;;;;13.67;4.87;;;11.20;99.90;;;;;;5035165;28;20183;-71
2022/09/25 06:59:35;;;;;;;11.67;4.97;;;11.10;99.90;;;;;;5036373;28;20542;-71
2022/09/25 07:03:43;;;;;;;10.77;4.33;;;11.10;99.90;;;;;;5034783;28;20667;-71
2022/09/25 07:04:49;;;;;;;6.23;3.97;;;11.20;99.90;;;;;;5035771;28;20710;-71
2022/09/25 07:07:18;;;;;;;9.10;4.17;;;11.20;99.90;;;;;;5048379;28;20217;-70
2022/09/25 07:09:44;;;;;;;13.37;4.83;;;11.20;99.90;;;;;;5055921;28;20186;-70
2022/09/25 07:12:10;;;;;;;6.20;4.07;;;11.20;99.90;;;;;;5055987;28;20182;-71
2022/09/25 07:14:37;;;;;;;7.40;4.23;;;11.20;99.90;;;;;;5054421;28;20171;-70
2022/09/25 07:17:03;;;;;;;15.53;4.60;;;11.30;99.90;;;;;;5044509;28;20174;-70
2022/09/25 07:19:28;;;;;;;11.37;4.47;;;11.30;99.90;;;;;;5036228;28;20195;-69
2022/09/25 07:21:54;;;;;;;11.07;4.30;;;11.40;99.90;;;;;;5035976;28;20186;-71
2022/09/25 07:24:20;;;;;;;15.93;5.40;;;11.40;99.90;;;;;;5034453;28;20183;-71
2022/09/25 07:26:46;;;;;;;10.30;4.90;;;11.40;99.90;;;;;;5036152;28;20542;-71
2022/09/25 07:29:12;;;;;;;10.90;5.20;;;11.50;99.90;;;;;;5018148;28;20204;-71
2022/09/25 07:31:38;;;;;;;13.67;4.63;;;11.60;99.90;;;;;;5014735;28;20195;-71
2022/09/25 07:34:11;;;;;;;15.38;5.30;;;11.70;99.90;;;;;;5015902;28;20176;-71
2022/09/25 07:36:39;;;;;;;7.40;5.30;;;11.80;99.90;;;;;;5027974;28;20220;-72
2022/09/25 07:39:06;;;;;;;13.23;5.50;;;11.90;99.90;;;;;;5055750;28;20591;-72
2022/09/25 07:41:33;;;;;;;14.20;5.73;;;11.90;99.90;;;;;;5055967;28;20222;-71
2022/09/25 07:43:59;;;;;;;12.03;5.00;;;11.90;99.90;;;;;;5054532;28;20186;-71
2022/09/25 07:46:26;;;;;;;10.03;5.20;;;12.00;99.90;;;;;;5049525;28;20199;-71
2022/09/25 07:48:52;;;;;;;10.83;4.60;;;12.10;99.90;;;;;;5037628;28;20176;-71
2022/09/25 07:51:20;;;;;;;10.20;4.97;;;12.20;99.90;;;;;;5037440;28;20266;-71
2022/09/25 07:53:47;;;;;;;11.77;5.60;;;12.30;99.90;;;;;;5034668;28;20187;-71
2022/09/25 07:56:12;;;;;;;12.47;5.10;;;12.50;99.90;;;;;;5034362;28;20190;-71
2022/09/25 07:58:39;;;;;;;15.60;4.67;;;12.60;99.90;;;;;;5022310;28;20196;-71
2022/09/25 08:01:08;;;;;;;8.03;5.13;;;12.70;99.90;;;;;;5015846;28;20206;-71
2022/09/25 08:03:34;;;;;;;9.17;4.80;;;12.80;99.90;;;;;;5013928;28;20179;-71
2022/09/25 08:06:12;;;;;;;12.48;4.68;;;13.00;99.90;;;;;;5018469;28;20256;-72
2022/09/25 08:08:40;;;;;;;10.43;5.13;;;13.10;99.90;;;;;;5054936;28;20154;-71
2022/09/25 08:11:08;;;;;;;11.93;5.00;;;13.40;99.90;;;;;;5053711;28;20712;-71
2022/09/25 08:13:36;;;;;;;12.15;5.28;;;13.60;99.90;;;;;;5053434;28;20532;-70
2022/09/25 08:16:06;;;;;;;8.45;4.82;;;13.60;99.90;;;;;;5050493;28;20706;-71
2022/09/25 08:18:32;;;;;;;11.52;4.38;;;13.60;99.90;;;;;;5034827;28;20531;-71
2022/09/25 08:21:02;;;;;;;11.57;4.13;;;13.50;99.90;;;;;;5034758;28;20207;-71
2022/09/25 08:23:27;;;;;;;11.57;4.28;;;13.40;99.90;;;;;;5033580;28;20178;-71
2022/09/25 08:25:54;;;;;;;7.50;3.67;;;13.30;99.90;;;;;;5035177;28;20175;-72
2022/09/25 08:28:20;;;;;;;9.70;4.15;;;13.30;99.90;;;;;;5025151;28;20176;-71
2022/09/25 08:30:46;;;;;;;7.80;4.25;;;13.40;99.90;;;;;;5016120;28;20196;-72
2022/09/25 08:33:12;;;;;;;8.25;4.18;;;13.50;99.90;;;;;;5015796;28;20222;-70
2022/09/25 08:35:39;;;;;;;9.90;4.10;;;13.70;99.90;;;;;;5013742;28;20179;-71
2022/09/25 08:38:07;;;;;;;12.05;4.40;;;13.90;99.90;;;;;;5054355;28;20186;-71
2022/09/25 08:40:37;;;;;;;7.03;3.55;;;13.90;99.90;;;;;;5055629;28;20203;-71
2022/09/25 08:43:05;;;;;;;7.78;4.07;;;13.90;99.90;;;;;;5055863;28;20171;-71
2022/09/25 08:51:12;;;;;;;12.57;3.70;;;14.00;99.90;;;;;;5034692;28;20523;-70
2022/09/25 08:53:39;;;;;;;9.73;3.40;;;14.20;99.90;;;;;;5032819;28;20183;-70
2022/09/25 08:56:16;;;;;;;12.85;3.33;;;14.20;99.90;;;;;;5032704;28;20179;-70
2022/09/25 08:58:53;;;;;;;9.65;3.67;;;14.10;99.90;;;;;;5020517;28;20175;-70
2022/09/25 09:01:25;;;;;;;11.80;3.92;;;14.30;99.90;;;;;;5014168;28;20221;-70
2022/09/25 09:04:18;;;;;;;6.82;3.20;;;14.40;99.90;;;;;;5014794;28;20152;-70
2022/09/25 09:06:46;;;;;;;11.43;3.40;;;14.20;99.90;;;;;;5029481;28;20232;-72
2022/09/25 09:09:16;;;;;;;7.15;3.30;;;14.10;99.90;;;;;;5052559;28;20218;-72
2022/09/25 09:12:13;;;;;;;6.13;3.42;;;14.00;99.90;;;;;;5054044;28;20254;-72
2022/09/25 09:14:47;;;;;;;7.95;3.50;;;13.80;99.90;;;;;;5053320;28;20252;-72
2022/09/25 09:17:23;;;;;;;9.18;3.53;;;13.70;99.90;;;;;;5040085;28;20206;-72
2022/09/25 09:20:15;;;;;;;5.65;3.33;;;13.60;99.90;;;;;;5032404;28;20207;-72
2022/09/25 09:22:49;;;;;;;8.30;3.33;;;13.60;99.90;;;;;;5033877;28;20170;-72
2022/09/25 09:25:21;;;;;;;11.10;3.25;;;13.70;99.90;;;;;;5033704;28;20165;-72
2022/09/25 09:28:21;;;;;;;8.32;3.00;;;13.70;99.90;;;;;;5027881;28;20179;-72
2022/09/25 09:31:06;;;;;;;6.35;3.40;;;13.80;99.90;;;;;;5012686;28;20679;-72
2022/09/25 09:33:58;;;;;;;8.77;3.67;;;13.70;99.90;;;;;;5013801;28;20170;-72
2022/09/25 09:36:56;;;;;;;7.00;3.03;;;13.90;99.90;;;;;;5023993;28;20272;-72
2022/09/25 09:39:31;;;;;;;6.90;3.35;;;14.30;99.90;;;;;;5053300;28;20198;-72
2022/09/25 09:42:18;;;;;;;10.45;3.47;;;14.60;99.90;;;;;;5053429;28;20201;-72
2022/09/25 09:45:07;;;;;;;6.65;3.22;;;14.80;99.90;;;;;;5053323;28;20178;-73
2022/09/25 09:48:09;;;;;;;9.50;3.08;;;15.20;99.90;;;;;;5036620;28;20179;-72
2022/09/25 09:50:46;;;;;;;6.85;2.95;;;15.50;99.90;;;;;;5026789;28;20677;-73
2022/09/25 09:53:27;;;;;;;11.45;3.60;;;15.60;99.90;;;;;;5037740;28;20173;-72
2022/09/25 09:56:03;;;;;;;8.43;3.15;;;15.70;99.90;;;;;;5037753;28;20194;-72
2022/09/25 09:58:53;;;;;;;7.60;2.83;;;15.80;99.90;;;;;;5025639;28;20205;-72
2022/09/25 10:01:23;;;;;;;5.35;2.33;;;15.90;99.90;;;;;;5016358;28;20199;-73
2022/09/25 10:04:00;;;;;;;8.70;2.88;;;15.90;99.90;;;;;;5016093;28;20168;-72
2022/09/25 10:06:30;;;;;;;8.27;2.97;;;15.90;99.90;;;;;;5028224;28;20180;-72
2022/09/25 10:08:55;;;;;;;10.20;3.00;;;15.90;99.90;;;;;;5057210;28;20194;-72
2022/09/25 10:11:21;;;;;;;8.98;3.15;;;15.90;99.90;;;;;;5056973;28;20672;-72
2022/09/25 10:13:47;;;;;;;6.72;3.10;;;15.60;99.90;;;;;;5055776;28;20236;-72
2022/09/25 10:16:24;;;;;;;9.93;2.95;;;15.30;99.90;;;;;;5050959;28;20179;-72
2022/09/25 10:18:52;;;;;;;5.35;2.40;;;15.10;99.90;;;;;;5035563;28;20266;-72
2022/09/25 10:21:21;;;;;;;8.35;2.92;;;15.10;99.90;;;;;;5035464;28;20207;-72
2022/09/25 10:23:49;;;;;;;5.70;2.58;;;15.10;99.90;;;;;;5035511;28;20187;-73
2022/09/25 10:26:35;;;;;;;6.38;2.95;;;15.20;99.90;;;;;;5035791;28;20175;-72
2022/09/25 10:29:04;;;;;;;5.93;2.42;;;15.30;99.90;;;;;;5019889;28;20552;-72
2022/09/25 10:31:37;;;;;;;6.85;2.50;;;15.50;99.90;;;;;;5017114;28;20182;-72
2022/09/25 10:34:15;;;;;;;8.57;2.45;;;15.70;99.90;;;;;;5017186;28;20168;-72
2022/09/25 10:36:50;;;;;;;4.50;2.40;;;15.90;99.90;;;;;;5031534;28;20186;-72
2022/09/25 10:39:38;;;;;;;6.28;2.60;;;16.10;99.90;;;;;;5056531;28;20665;-72
2022/09/25 10:42:25;;;;;;;5.47;2.50;;;16.30;99.90;;;;;;5056765;28;20524;-71
2022/09/25 10:44:55;;;;;;;6.35;2.30;;;16.30;99.90;;;;;;5054990;28;20231;-72
2022/09/25 10:50:22;;;;;;;4.93;2.20;;;16.10;99.90;;;;;;5036419;28;20344;-72
2022/09/25 10:52:57;;;;;;;5.25;2.40;;;16.20;99.90;;;;;;5036379;28;20704;-72
2022/09/25 10:55:27;;;;;;;5.32;2.53;;;16.50;99.90;;;;;;5036762;28;20245;-72
2022/09/25 10:58:01;;;;;;;4.80;2.53;;;16.80;99.90;;;;;;5029584;28;20211;-72
2022/09/25 11:00:27;;;;;;;4.18;2.13;;;17.00;99.90;;;;;;5016318;28;20611;-72
2022/09/25 11:03:03;;;;;;;3.88;2.13;;;17.10;99.90;;;;;;5016133;28;20176;-76
2022/09/25 11:05:32;;;;;;;3.92;2.10;;;16.80;99.90;;;;;;5016223;28;20543;-72
2022/09/25 11:08:00;;;;;;;1.98;1.80;;;16.40;99.90;;;;;;5050530;28;20178;-72
2022/09/25 11:10:35;;;;;;;4.78;2.22;;;16.10;99.90;;;;;;5054813;28;20234;-70
2022/09/25 11:13:08;;;;;;;5.28;2.28;;;15.90;99.90;;;;;;5056802;28;20159;-76
2022/09/25 11:15:38;;;;;;;3.03;2.25;;;16.00;99.90;;;;;;5055624;28;20166;-76
2022/09/25 11:18:05;;;;;;;6.18;2.40;;;16.20;99.90;;;;;;5036513;28;20178;-72
2022/09/25 11:20:31;;;;;;;3.10;2.20;;;16.50;99.90;;;;;;5035734;28;20203;-72
2022/09/25 11:23:12;;;;;;;5.32;2.00;;;16.70;99.90;;;;;;5035817;28;20175;-73
2022/09/25 11:25:58;;;;;;;4.80;2.42;;;17.00;99.90;;;;;;5036162;28;20262;-71
2022/09/25 11:28:34;;;;;;;3.63;2.03;;;17.10;99.90;;;;;;5023758;28;20186;-70
2022/09/25 11:31:33;;;;;;;5.28;2.15;;;17.30;99.90;;;;;;5014537;28;20238;-71
2022/09/25 11:34:32;;;;;;;3.00;2.35;;;17.60;99.90;;;;;;5013167;28;20195;-71
2022/09/25 11:37:35;;;;;;;4.20;1.85;;;18.00;99.90;;;;;;5035162;28;20298;-71
2022/09/25 11:43:13;;;;;;;6.63;2.40;;;18.40;99.90;;;;;;5055672;28;20671;-71
2022/09/25 11:45:46;;;;;;;2.95;2.30;;;18.40;99.90;;;;;;5054400;28;20183;-71
2022/09/25 11:48:22;;;;;;;3.60;2.15;;;18.10;99.90;;;;;;5034253;28;20174;-71
2022/09/25 11:51:21;;;;;;;8.48;2.50;;;18.00;99.90;;;;;;5034392;28;20684;-71
2022/09/25 11:54:14;;;;;;;3.17;1.80;;;17.70;99.90;;;;;;5035361;28;20243;-71
2022/09/25 11:57:00;;;;;;;1.98;1.88;;;18.00;99.90;;;;;;5035548;28;20160;-71
2022/09/25 12:00:00;;;;;;;4.65;2.10;;;18.40;99.90;;;;;;5014788;28;20207;-70
2022/09/25 12:02:32;;;;;;;4.90;2.00;;;18.70;99.90;;;;;;5016030;28;20210;-71
2022/09/25 12:04:58;;;;;;;5.15;1.83;;;18.80;99.90;;;;;;5015601;28;20616;-71
2022/09/25 12:07:32;;;;;;;3.95;2.00;;;18.30;99.90;;;;;;5042173;28;20184;-70
2022/09/25 12:10:11;;;;;;;2.65;1.85;;;17.80;99.90;;;;;;5055735;28;20280;-70
2022/09/25 12:12:45;;;;;;;2.72;2.03;;;17.40;99.90;;;;;;5056428;28;20162;-70
2022/09/25 12:16:06;;;;;;;4.15;2.10;;;17.00;99.90;;;;;;5055294;28;20680;-72
2022/09/25 12:18:39;;;;;;;4.00;2.05;;;16.70;99.90;;;;;;4993501;28;20533;-70
2022/09/25 12:21:14;;;;;;;2.97;1.90;;;16.50;99.90;;;;;;5012308;28;20621;-72
2022/09/25 12:23:57;;;;;;;4.60;2.40;;;16.30;99.90;;;;;;5013978;28;20259;-72
2022/09/25 12:27:10;;;;;;;3.28;1.98;;;16.70;99.90;;;;;;5013988;28;20174;-72
2022/09/25 12:30:06;;;;;;;4.03;2.00;;;17.30;99.90;;;;;;4958623;28;20201;-71
2022/09/25 12:33:01;;;;;;;5.78;2.10;;;17.90;99.90;;;;;;5018476;28;20266;-72
2022/09/25 12:35:48;;;;;;;4.07;1.95;;;18.20;99.90;;;;;;5017289;28;20217;-71
2022/09/25 12:38:34;;;;;;;4.60;2.10;;;18.40;99.90;;;;;;5014933;28;20178;-71
2022/09/25 12:41:11;;;;;;;8.07;2.03;;;18.70;99.90;;;;;;5014109;28;20294;-71
2022/09/25 12:44:04;;;;;;;5.50;1.90;;;18.40;99.90;;;;;;5015260;28;20193;-72
2022/09/25 12:46:43;;;;;;;6.28;2.08;;;18.50;99.90;;;;;;5021747;28;20191;-72
2022/09/25 12:49:12;;;;;;;2.00;1.85;;;19.00;99.90;;;;;;5034730;28;20218;-73
2022/09/25 12:51:45;;;;;;;2.08;1.52;;;19.40;99.90;;;;;;5034579;28;20268;-72
2022/09/25 12:54:35;;;;;;;3.70;1.80;;;19.80;99.90;;;;;;5033420;28;20183;-76
2022/09/25 12:57:20;;;;;;;3.67;1.90;;;19.70;99.90;;;;;;5034558;28;20191;-76
2022/09/25 12:59:50;;;;;;;2.60;1.80;;;19.10;99.90;;;;;;5015131;28;20194;-75
2022/09/25 13:02:21;;;;;;;4.38;2.10;;;18.90;99.90;;;;;;5013783;28;20271;-75
2022/09/25 13:05:11;;;;;;;2.70;1.90;;;18.80;99.90;;;;;;5014336;28;20160;-72
2022/09/25 13:07:56;;;;;;;4.40;1.92;;;18.60;99.90;;;;;;5043267;28;20178;-73
2022/09/25 13:10:42;;;;;;;2.55;1.60;;;19.00;99.90;;;;;;5054205;28;20269;-74
2022/09/25 13:13:18;;;;;;;4.47;2.00;;;19.20;99.90;;;;;;5054523;28;20194;-73
2022/09/25 13:15:55;;;;;;;3.90;1.65;;;19.30;99.90;;;;;;5051064;28;20690;-73
2022/09/25 13:18:23;;;;;;;3.22;1.60;;;19.50;99.90;;;;;;5033867;28;20169;-72
2022/09/25 13:20:55;;;;;;;2.63;1.83;;;19.80;99.90;;;;;;5033642;28;20242;-73
2022/09/25 13:23:39;;;;;;;1.77;1.60;;;19.80;99.90;;;;;;5033776;28;20167;-73
2022/09/25 13:26:17;;;;;;;3.10;1.67;;;19.90;99.90;;;;;;5034122;28;20238;-76